This is the latest recevied weather packets stored in our database for station/object TA2LKM-11. If no packets are shown the sender has not sent any weather packets the latest 10 day(s).
| Time | Temp. | Humidity | Pressure | Rain* | Wind** | Luminosity | Snow |
|---|---|---|---|---|---|---|---|
| 1788179095 | 33.33° C | 100% | 764.9 hPa | - | - | - | - |
| 1788178194 | 33.33° C | 100% | 764.9 hPa | - | - | - | - |
| 1788171889 | 33.33° C | 100% | 764.9 hPa | - | - | - | - |
| 1788169187 | 32.78° C | 43% | 1015.5 hPa | - | - | - | - |
| 1788167478 | 33.33° C | 42% | 1015.8 hPa | - | - | - | - |
| 1788163807 | 33.89° C | 39% | 1016.2 hPa | - | - | - | - |
| 1788162899 | 33.89° C | 39% | 1016.3 hPa | - | - | - | - |
| 1788161998 | 30.56° C | 47% | 1016.4 hPa | - | - | - | - |
| 1788161192 | 32.22° C | 44% | 1016.4 hPa | - | - | - | - |
| 1788160197 | 29.44° C | 49% | 1016.5 hPa | - | - | - | - |
| 1788159296 | 30.56° C | 44% | 1016.3 hPa | - | - | - | - |
| 1788158395 | 33.89° C | 37% | 1016.5 hPa | - | - | - | - |
| 1788157494 | 36.67° C | 33% | 1017.2 hPa | - | - | - | - |
| 1788156594 | 36.11° C | 34% | 1017.1 hPa | - | - | - | - |
| 1788155693 | 36.67° C | 33% | 1017.2 hPa | - | - | - | - |
| 1788154869 | 33.89° C | 37% | 1017.1 hPa | - | - | - | - |
| 1788153083 | 35° C | 37% | 1016.9 hPa | - | - | - | - |
| 1788151189 | 30° C | 47% | 1016.8 hPa | - | - | - | - |
| 1788148487 | 22.22° C | 67% | 1016.5 hPa | - | - | - | - |
| 1788147587 | 22.22° C | 67% | 1016.3 hPa | - | - | - | - |
| 1788145878 | 22.78° C | 65% | 1016.2 hPa | - | - | - | - |
| 1788144878 | 33.33° C | 100% | 764.9 hPa | - | - | - | - |
| 1788143978 | 33.33° C | 100% | 764.9 hPa | - | - | - | - |
| 1788143077 | 33.33° C | 100% | 764.9 hPa | - | - | - | - |
| 1788142176 | 33.33° C | 100% | 764.9 hPa | - | - | - | - |
* Rain since midnight (hover to see other rain measurements)
** Current wind speed in m/s (hover to see current wind gust speed)